Time;durP1;ratioP1;P1;durP2;ratioP2;P2;SDS_P1;SDS_P2;PMS_P1;PMS_P2;Temp;Humidity;BMP_temperature;BMP_pressure;BME280_temperature;BME280_humidity;BME280_pressure;Samples;Min_cycle;Max_cycle;Signal;HPM_P1;HPM_P2
2022/09/19 00:01:10;;;;;;;1.52;1.05;;;;;;;15.68;52.49;100040.75;5051926;28;20294;-75
2022/09/19 00:03:37;;;;;;;0.90;0.90;;;;;;;15.77;53.09;100075.53;5052511;28;20285;-74
2022/09/19 00:06:04;;;;;;;1.08;1.08;;;;;;;15.69;52.97;100079.09;5052112;28;20206;-75
2022/09/19 00:08:31;;;;;;;2.53;1.30;;;;;;;15.78;53.19;100068.56;5051957;28;20616;-75
2022/09/19 00:11:01;;;;;;;0.90;0.90;;;;;;;15.76;52.76;100047.66;5016893;28;20280;-75
2022/09/19 00:13:30;;;;;;;0.98;0.98;;;;;;;15.84;52.69;100050.22;5051881;28;20286;-75
2022/09/19 00:15:58;;;;;;;0.90;0.90;;;;;;;15.80;52.75;100074.66;5052123;28;20202;-75
2022/09/19 00:18:25;;;;;;;4.03;1.00;;;;;;;15.68;53.17;100062.53;5052021;28;20211;-77
2022/09/19 00:20:52;;;;;;;1.55;1.10;;;;;;;15.63;53.34;100071.25;5052111;28;20203;-74
2022/09/19 00:26:06;;;;;;;0.90;0.90;;;;;;;15.47;53.83;100046.06;5051854;28;20617;-74
2022/09/19 00:28:35;;;;;;;2.78;1.00;;;;;;;15.65;53.93;100059.94;5051728;28;20213;-75
2022/09/19 00:31:02;;;;;;;0.90;0.90;;;;;;;15.61;54.06;100049.50;5051610;28;20706;-76
2022/09/19 00:33:31;;;;;;;1.08;1.08;;;;;;;15.58;54.04;100057.38;5051730;28;20200;-75
2022/09/19 00:35:59;;;;;;;1.10;1.00;;;;;;;15.30;54.27;100015.66;5016601;28;20195;-74
2022/09/19 00:38:28;;;;;;;1.13;1.13;;;;;;;15.59;54.24;100064.34;5048201;28;20261;-74
2022/09/19 00:40:55;;;;;;;1.15;1.08;;;;;;;15.38;54.64;100053.06;5048035;28;20584;-76
2022/09/19 00:43:25;;;;;;;3.00;1.00;;;;;;;15.32;55.30;100050.50;5051628;28;20214;-74
2022/09/19 00:45:53;;;;;;;1.10;1.10;;;;;;;15.44;55.26;100074.81;5051517;28;20630;-74
2022/09/19 00:48:23;;;;;;;0.95;0.95;;;;;;;15.36;55.22;100059.19;5051498;28;20268;-75
2022/09/19 00:50:55;;;;;;;1.33;1.10;;;;;;;15.42;55.15;100071.34;5051316;28;20289;-76
2022/09/19 00:53:25;;;;;;;1.95;1.10;;;;;;;15.29;55.21;100058.34;5032283;28;20977;-75
2022/09/19 00:55:55;;;;;;;1.00;1.00;;;;;;;15.33;55.32;100062.69;5051539;28;20195;-75
2022/09/19 00:58:29;;;;;;;1.85;1.15;;;;;;;15.20;55.95;100066.22;5051063;28;20199;-73
2022/09/19 01:00:59;;;;;;;1.38;1.00;;;;;;;15.20;56.42;100062.72;5051245;28;20218;-75
2022/09/19 01:03:27;;;;;;;1.05;1.05;;;;;;;15.19;56.57;100056.66;5051117;28;20199;-75
2022/09/19 01:06:04;;;;;;;1.30;1.30;;;;;;;15.08;57.55;100045.38;5051121;28;20211;-75
2022/09/19 01:08:45;;;;;;;1.52;1.40;;;;;;;14.64;59.22;100048.13;5051054;28;20260;-74
2022/09/19 01:11:42;;;;;;;1.17;1.17;;;;;;;14.56;60.12;100043.75;5050983;28;20247;-75
2022/09/19 01:14:17;;;;;;;1.08;1.08;;;;;;;14.55;61.64;100066.41;5050739;28;20207;-75
2022/09/19 01:16:50;;;;;;;1.10;1.10;;;;;;;14.48;62.73;100056.84;5027708;28;20222;-74
2022/09/19 01:19:44;;;;;;;1.02;1.02;;;;;;;14.26;62.67;100063.78;5024606;28;20207;-75
2022/09/19 01:22:24;;;;;;;1.75;1.15;;;;;;;14.24;63.36;100054.19;5042820;28;20205;-74
2022/09/19 01:24:59;;;;;;;2.05;1.30;;;;;;;14.33;62.54;100060.31;5043592;28;20209;-75
2022/09/19 01:28:09;;;;;;;0.95;0.95;;;;;;;14.38;62.72;100053.38;5043256;28;20744;-74
2022/09/19 01:30:42;;;;;;;1.30;1.30;;;;;;;14.32;62.25;100055.94;5042916;28;20226;-74
2022/09/19 01:33:17;;;;;;;1.05;1.02;;;;;;;14.25;62.78;100022.91;5043556;28;20202;-74
2022/09/19 01:35:50;;;;;;;1.00;1.00;;;;;;;14.45;62.71;100061.22;5043271;28;20234;-73
2022/09/19 01:38:22;;;;;;;1.40;1.30;;;;;;;14.24;62.38;100047.25;5043291;28;20200;-75
2022/09/19 01:40:50;;;;;;;1.10;1.05;;;;;;;14.18;63.08;100047.25;5043733;28;20207;-75
2022/09/19 01:43:20;;;;;;;1.08;1.00;;;;;;;14.17;62.53;100039.44;5043298;28;20581;-75
2022/09/19 01:45:47;;;;;;;1.30;1.20;;;;;;;14.04;63.10;100042.91;5043190;28;20238;-75
2022/09/19 01:48:20;;;;;;;1.30;1.25;;;;;;;14.29;63.01;100071.59;5042980;28;20280;-73
2022/09/19 01:51:10;;;;;;;1.15;1.13;;;;;;;14.34;62.75;100072.50;5027661;28;20725;-74
2022/09/19 01:53:51;;;;;;;1.23;1.20;;;;;;;14.28;63.05;100080.28;5043247;28;20873;-75
2022/09/19 01:56:29;;;;;;;1.00;1.00;;;;;;;13.89;63.36;99999.47;5042889;28;20690;-74
2022/09/19 01:59:05;;;;;;;1.15;1.13;;;;;;;14.30;63.36;100072.47;5043058;28;20199;-75
2022/09/19 02:01:38;;;;;;;1.55;1.00;;;;;;;14.27;63.86;100073.31;5042818;28;20199;-75
2022/09/19 02:04:13;;;;;;;4.57;1.17;;;;;;;14.01;63.36;100038.56;5043031;28;20211;-75
2022/09/19 02:06:48;;;;;;;1.10;1.10;;;;;;;14.29;64.27;100065.50;5044990;28;20643;-75
2022/09/19 02:09:23;;;;;;;1.10;1.10;;;;;;;14.43;62.73;100070.75;5047020;28;20666;-76
2022/09/19 02:11:51;;;;;;;1.00;1.00;;;;;;;14.27;63.45;100052.47;5046322;28;20215;-75
2022/09/19 02:14:26;;;;;;;3.28;1.48;;;;;;;14.35;62.99;100078.56;5046683;28;20199;-74
2022/09/19 02:17:03;;;;;;;1.50;1.02;;;;;;;14.14;63.66;100037.69;5047648;28;20206;-74
2022/09/19 02:19:33;;;;;;;1.00;1.00;;;;;;;14.31;64.02;100069.84;5033050;28;20199;-75
2022/09/19 02:22:04;;;;;;;1.30;1.30;;;;;;;14.30;63.99;100062.88;5054279;28;20202;-75
2022/09/19 02:24:34;;;;;;;1.00;1.00;;;;;;;14.21;63.89;100055.09;5053898;28;20699;-75
2022/09/19 02:27:08;;;;;;;1.48;1.10;;;;;;;14.31;63.98;100064.63;5054357;28;20261;-76
2022/09/19 02:29:41;;;;;;;1.30;1.20;;;;;;;14.31;64.36;100059.41;5054154;28;20231;-73
2022/09/19 02:32:09;;;;;;;2.95;1.10;;;;;;;14.12;64.46;100042.06;5054139;28;20223;-75
2022/09/19 02:34:37;;;;;;;1.38;1.10;;;;;;;14.01;64.21;100040.31;5053976;28;20595;-75
2022/09/19 02:37:12;;;;;;;1.17;1.17;;;;;;;14.14;64.90;100061.16;5053774;28;20215;-75
2022/09/19 02:39:46;;;;;;;2.67;1.40;;;;;;;13.67;64.19;99984.69;5053495;28;20201;-75
2022/09/19 02:42:22;;;;;;;1.10;1.10;;;;;;;14.24;63.99;100057.69;5053421;28;20214;-75
2022/09/19 02:45:07;;;;;;;1.35;1.20;;;;;;;14.22;63.39;100053.34;5034581;28;20195;-75
2022/09/19 02:47:41;;;;;;;0.98;0.98;;;;;;;14.30;62.87;100065.50;5053346;28;20211;-75
2022/09/19 02:50:13;;;;;;;1.00;1.00;;;;;;;14.35;63.06;100070.75;5053726;28;20206;-76
2022/09/19 02:52:42;;;;;;;1.83;1.17;;;;;;;14.38;63.11;100076.84;5034426;28;20199;-74
2022/09/19 02:55:13;;;;;;;1.10;1.10;;;;;;;14.43;61.94;100069.03;5052931;28;20203;-75
2022/09/19 02:57:43;;;;;;;1.10;1.10;;;;;;;14.54;62.06;100063.78;5052867;28;20283;-74
2022/09/19 03:00:15;;;;;;;1.10;1.10;;;;;;;14.49;61.90;100062.91;5018642;28;20200;-73
2022/09/19 03:02:46;;;;;;;2.58;1.10;;;;;;;14.35;61.68;100050.75;5053203;28;20200;-74
2022/09/19 03:05:19;;;;;;;1.40;1.30;;;;;;;14.55;61.41;100070.75;5052919;28;20642;-74
2022/09/19 03:07:50;;;;;;;1.42;1.33;;;;;;;14.47;61.14;100060.31;5052577;28;20253;-75
2022/09/19 03:10:21;;;;;;;4.10;1.17;;;;;;;14.52;61.14;100076.81;5052619;28;20671;-75
2022/09/19 03:12:52;;;;;;;1.23;1.20;;;;;;;14.47;61.96;100082.94;5018414;28;20245;-75
2022/09/19 03:15:23;;;;;;;0.90;0.90;;;;;;;14.61;60.38;100078.56;5052869;28;20211;-74
2022/09/19 03:17:52;;;;;;;1.05;1.05;;;;;;;14.61;59.89;100055.06;5052435;28;20207;-74
2022/09/19 03:20:24;;;;;;;0.95;0.95;;;;;;;14.74;59.67;100085.50;5048801;28;20230;-73
2022/09/19 03:22:53;;;;;;;1.00;1.00;;;;;;;14.72;59.65;100068.97;5046193;28;20191;-75
2022/09/19 03:25:20;;;;;;;1.00;1.00;;;;;;;14.86;59.14;100095.91;5051677;28;20187;-75
2022/09/19 03:27:49;;;;;;;2.60;1.00;;;;;;;14.69;58.24;100069.88;5052643;28;20581;-74
2022/09/19 03:30:16;;;;;;;1.10;1.10;;;;;;;14.77;58.67;100086.34;5052144;28;20200;-75
2022/09/19 03:32:44;;;;;;;1.17;1.02;;;;;;;14.82;58.61;100089.84;5052477;28;20623;-74
2022/09/19 03:35:11;;;;;;;0.95;0.95;;;;;;;14.65;58.73;100085.53;5055432;28;20269;-74
2022/09/19 03:37:38;;;;;;;1.65;1.15;;;;;;;14.71;58.77;100091.59;5056731;28;20253;-75
2022/09/19 03:40:05;;;;;;;3.35;1.00;;;;;;;14.69;59.18;100087.25;5056787;28;20660;-76
2022/09/19 03:42:37;;;;;;;1.02;0.90;;;;;;;14.63;58.64;100066.38;5055891;28;20200;-74
2022/09/19 03:45:05;;;;;;;1.85;1.30;;;;;;;14.76;58.94;100084.63;5052100;28;20232;-75
2022/09/19 03:47:32;;;;;;;2.65;1.20;;;;;;;14.79;58.82;100088.97;5052113;28;20199;-76
2022/09/19 03:50:00;;;;;;;0.93;0.93;;;;;;;14.82;59.36;100083.75;5052052;28;20203;-75
2022/09/19 03:52:27;;;;;;;1.13;1.13;;;;;;;14.73;58.14;100089.84;5052123;28;20231;-75
2022/09/19 03:54:54;;;;;;;0.95;0.95;;;;;;;14.71;57.99;100075.06;5052335;28;20235;-74
2022/09/19 03:57:21;;;;;;;1.92;1.05;;;;;;;14.81;58.24;100084.59;5052256;28;20294;-74
2022/09/19 03:59:48;;;;;;;1.17;1.00;;;;;;;14.88;57.33;100084.59;5052207;28;20200;-74
2022/09/19 04:02:15;;;;;;;1.20;1.20;;;;;;;14.93;57.25;100084.59;5052287;28;20199;-75
2022/09/19 04:04:42;;;;;;;0.90;0.90;;;;;;;14.72;57.88;100061.16;5052260;28;20203;-73
2022/09/19 04:07:10;;;;;;;1.08;1.08;;;;;;;15.04;57.42;100080.22;5052199;28;20203;-74
2022/09/19 04:09:37;;;;;;;0.90;0.90;;;;;;;15.01;56.86;100085.44;5052327;28;20191;-74
2022/09/19 04:12:04;;;;;;;1.02;1.02;;;;;;;15.11;56.63;100086.28;5051979;28;20227;-74
2022/09/19 04:14:31;;;;;;;1.05;1.05;;;;;;;14.99;57.20;100081.06;5052148;28;20200;-74
2022/09/19 04:16:58;;;;;;;0.88;0.88;;;;;;;14.98;57.03;100079.38;5051865;28;20210;-74
2022/09/19 04:19:26;;;;;;;1.02;1.02;;;;;;;14.94;56.69;100059.34;5052049;28;20268;-74
2022/09/19 04:21:53;;;;;;;2.38;1.23;;;;;;;15.00;56.83;100070.66;5052207;28;20207;-72
2022/09/19 04:24:25;;;;;;;1.05;1.05;;;;;;;15.07;56.37;100068.88;5048771;28;20737;-74
2022/09/19 04:26:51;;;;;;;1.25;1.25;;;;;;;14.91;56.79;100067.19;5048597;28;20210;-75
2022/09/19 04:29:19;;;;;;;1.20;1.10;;;;;;;14.99;56.66;100068.91;5050589;28;20605;-74
2022/09/19 04:31:46;;;;;;;1.88;1.00;;;;;;;15.05;56.97;100088.91;5051137;28;20247;-74
2022/09/19 04:34:14;;;;;;;1.20;1.00;;;;;;;15.07;57.00;100088.03;5051222;28;20199;-75
2022/09/19 04:36:41;;;;;;;1.00;1.00;;;;;;;15.22;56.70;100093.22;5048927;28;20194;-74
2022/09/19 04:39:08;;;;;;;1.50;1.20;;;;;;;15.63;55.56;100097.41;5032050;28;20199;-74
2022/09/19 04:41:38;;;;;;;1.20;1.20;;;;;;;16.08;54.00;100091.91;5050840;28;20646;-74
2022/09/19 04:44:10;;;;;;;1.13;1.13;;;;;;;16.41;53.30;100103.00;5050337;28;20195;-74
2022/09/19 04:46:41;;;;;;;1.10;1.10;;;;;;;16.51;52.15;100087.19;5050570;28;20311;-75
2022/09/19 04:49:08;;;;;;;1.73;1.35;;;;;;;16.81;51.73;100107.00;5050675;28;20188;-75
2022/09/19 04:51:35;;;;;;;2.92;1.00;;;;;;;16.78;51.79;100105.28;5050470;28;20714;-75
2022/09/19 04:54:01;;;;;;;1.40;1.30;;;;;;;16.91;51.39;100105.19;5050723;28;20203;-74
2022/09/19 04:56:28;;;;;;;3.97;1.25;;;;;;;16.84;51.42;100099.09;5050549;28;20199;-75
2022/09/19 04:58:58;;;;;;;1.38;1.00;;;;;;;16.62;51.92;100087.97;5048978;28;20629;-74
2022/09/19 05:01:25;;;;;;;1.58;1.20;;;;;;;16.79;56.36;100066.88;5051071;28;20207;-75
2022/09/19 05:03:53;;;;;;;1.65;1.20;;;;;;;17.50;55.03;100094.00;5051173;28;20199;-78
2022/09/19 05:06:20;;;;;;;1.00;1.00;;;;;;;17.28;50.67;100078.53;5050876;28;20196;-71
2022/09/19 05:08:46;;;;;;;1.10;1.05;;;;;;;17.30;51.65;100097.72;5032312;28;20207;-75
2022/09/19 05:11:13;;;;;;;1.00;1.00;;;;;;;17.32;54.37;100090.72;5050626;28;20231;-75
2022/09/19 05:13:40;;;;;;;0.90;0.90;;;;;;;17.30;52.62;100071.50;5050715;28;20740;-75
2022/09/19 05:16:09;;;;;;;1.30;1.20;;;;;;;17.59;52.60;100057.19;5032010;28;20230;-74
2022/09/19 05:18:37;;;;;;;1.33;0.90;;;;;;;17.57;51.12;100072.06;5050352;28;20265;-74
2022/09/19 05:21:06;;;;;;;1.50;1.17;;;;;;;17.74;52.41;100109.41;5056080;28;20206;-74
2022/09/19 05:23:36;;;;;;;1.17;1.17;;;;;;;17.58;51.14;100102.66;5070461;28;20203;-75
2022/09/19 05:26:05;;;;;;;0.95;0.95;;;;;;;17.62;51.75;100107.81;5051067;28;20199;-77
2022/09/19 05:28:32;;;;;;;0.95;0.95;;;;;;;17.76;51.64;100113.75;5044876;28;20637;-75
2022/09/19 05:31:04;;;;;;;1.05;1.05;;;;;;;18.05;51.79;100107.25;5049739;28;20199;-75
2022/09/19 05:33:32;;;;;;;3.33;1.83;;;;;;;18.05;50.67;100087.09;5041712;28;20204;-74
2022/09/19 05:36:01;;;;;;;9.82;4.90;;;;;;;18.23;51.11;100109.56;5049075;28;20211;-70
2022/09/19 05:38:28;;;;;;;1.42;1.33;;;;;;;18.14;49.55;100109.72;5049072;28;20200;-75
2022/09/19 05:40:57;;;;;;;11.15;6.57;;;;;;;18.04;52.08;100109.00;5048417;28;20207;-74
2022/09/19 05:43:24;;;;;;;1.65;1.52;;;;;;;18.06;49.35;100119.47;5053707;28;20219;-70
2022/09/19 05:45:52;;;;;;;1.95;1.63;;;;;;;18.06;48.81;100122.94;5056813;28;20707;-74
2022/09/19 05:48:19;;;;;;;1.15;1.05;;;;;;;18.05;48.59;100110.72;5057102;28;20207;-76
2022/09/19 05:50:49;;;;;;;2.78;1.50;;;;;;;18.17;49.11;100094.78;5056815;28;20681;-75
2022/09/19 05:56:02;;;;;;;1.20;1.10;;;;;;;18.07;49.01;100124.69;5053759;28;20226;-74
2022/09/19 05:58:29;;;;;;;1.23;1.00;;;;;;;17.82;49.40;100104.94;5053270;28;20591;-76
2022/09/19 06:00:56;;;;;;;1.75;1.65;;;;;;;17.79;49.19;100123.34;5074437;28;20199;-73
2022/09/19 06:03:23;;;;;;;1.58;1.02;;;;;;;17.86;49.76;100124.13;5060096;28;20261;-75
2022/09/19 06:05:52;;;;;;;1.00;1.00;;;;;;;18.17;49.08;100126.28;5056236;28;20202;-75
2022/09/19 06:08:21;;;;;;;1.17;1.08;;;;;;;18.30;49.38;100112.06;5051189;28;20611;-78
2022/09/19 06:10:48;;;;;;;1.90;1.75;;;;;;;18.30;47.80;100113.81;5057813;28;20204;-77
2022/09/19 06:13:17;;;;;;;1.05;1.00;;;;;;;18.34;47.47;100098.00;5051426;28;20219;-75
2022/09/19 06:15:44;;;;;;;1.00;1.00;;;;;;;18.15;47.17;100083.47;5039636;28;20211;-76
2022/09/19 06:18:11;;;;;;;1.45;1.13;;;;;;;18.47;47.75;100135.44;5051980;28;20211;-75
2022/09/19 06:20:38;;;;;;;1.10;1.10;;;;;;;18.57;47.33;100133.56;5052047;28;20709;-77
2022/09/19 06:23:07;;;;;;;1.00;1.00;;;;;;;18.67;47.23;100129.88;5052101;28;20203;-76
2022/09/19 06:25:36;;;;;;;1.05;1.05;;;;;;;18.69;47.58;100134.22;5052321;28;20573;-74
2022/09/19 06:28:05;;;;;;;2.20;1.30;;;;;;;18.86;45.94;100135.69;5059457;28;20218;-76
2022/09/19 06:30:33;;;;;;;1.10;1.10;;;;;;;18.69;47.67;100104.47;5059204;28;20199;-76
2022/09/19 06:33:00;;;;;;;1.02;1.02;;;;;;;18.71;45.26;100114.06;5060797;28;20226;-77
2022/09/19 06:35:28;;;;;;;0.90;0.90;;;;;;;18.91;45.71;100129.44;5061321;28;20219;-79
2022/09/19 06:38:00;;;;;;;0.90;0.90;;;;;;;19.12;47.36;100130.84;5071557;28;20207;-78
2022/09/19 06:40:30;;;;;;;1.77;1.33;;;;;;;19.25;45.99;100132.31;5065207;28;20199;-77
2022/09/19 06:42:58;;;;;;;0.80;0.80;;;;;;;19.30;45.95;100133.97;5056434;28;20261;-77
2022/09/19 06:45:25;;;;;;;0.95;0.95;;;;;;;19.33;44.92;100131.25;5073515;28;20304;-78
2022/09/19 06:47:59;;;;;;;0.80;0.80;;;;;;;19.11;45.25;100114.19;5065721;28;20215;-79
2022/09/19 06:50:27;;;;;;;2.63;1.05;;;;;;;19.22;44.76;100141.16;5046108;28;20300;-76
2022/09/19 06:52:55;;;;;;;0.98;0.98;;;;;;;19.15;44.51;100100.09;5057334;28;20242;-78
2022/09/19 06:55:23;;;;;;;1.45;1.00;;;;;;;19.22;43.87;100127.13;5060772;28;20595;-78
2022/09/19 06:57:56;;;;;;;3.55;1.15;;;;;;;19.28;43.66;100125.25;5028574;28;20203;-75
2022/09/19 07:00:24;;;;;;;0.88;0.88;;;;;;;19.19;44.45;100122.78;5047010;28;20207;-75
2022/09/19 07:02:53;;;;;;;1.38;1.00;;;;;;;19.21;43.69;100131.53;5051428;28;21799;-77
2022/09/19 07:05:22;;;;;;;1.17;1.08;;;;;;;19.18;44.14;100109.69;5031789;28;20709;-76
2022/09/19 07:07:51;;;;;;;5.07;1.08;;;;;;;19.22;43.91;100117.50;5049007;28;20211;-77
2022/09/19 07:10:20;;;;;;;0.65;0.65;;;;;;;19.28;43.32;100124.38;5052040;28;20210;-76
2022/09/19 07:12:52;;;;;;;0.88;0.80;;;;;;;19.49;43.83;100123.97;5047872;28;20314;-75
2022/09/19 07:15:20;;;;;;;1.05;1.05;;;;;;;19.49;43.19;100126.59;5048068;28;20663;-77
2022/09/19 07:17:47;;;;;;;1.50;0.82;;;;;;;19.36;43.56;100129.50;5051094;28;20218;-74
2022/09/19 07:20:14;;;;;;;82.72;36.05;;;;;;;19.42;43.74;100113.63;5052143;28;20202;-74
2022/09/19 07:22:41;;;;;;;1.60;1.50;;;;;;;19.72;42.70;100123.50;5051639;28;20277;-78
2022/09/19 07:25:09;;;;;;;0.90;0.90;;;;;;;19.64;42.60;100105.25;5052163;28;20230;-75
2022/09/19 07:27:36;;;;;;;0.90;0.90;;;;;;;19.93;43.01;100122.16;5054252;28;20206;-75
2022/09/19 07:30:04;;;;;;;1.65;1.08;;;;;;;19.98;42.59;100105.34;5041805;28;20207;-76
2022/09/19 07:32:33;;;;;;;1.00;1.00;;;;;;;20.03;42.34;100106.13;5049399;28;20238;-77
2022/09/19 07:34:59;;;;;;;0.95;0.95;;;;;;;19.91;41.99;100113.41;5051213;28;20286;-76
2022/09/19 07:37:27;;;;;;;0.80;0.80;;;;;;;19.95;42.21;100122.97;5048779;28;20614;-74
2022/09/19 07:39:54;;;;;;;0.90;0.90;;;;;;;20.00;41.75;100124.63;5065187;28;20230;-77
2022/09/19 07:42:21;;;;;;;1.10;1.10;;;;;;;20.01;42.32;100094.75;5051399;28;20768;-76
2022/09/19 07:44:47;;;;;;;1.08;1.08;;;;;;;20.20;41.51;100122.38;5052191;28;20196;-77
2022/09/19 07:47:29;;;;;;;0.90;0.90;;;;;;;20.30;40.79;100114.31;5033396;28;20211;-77
2022/09/19 07:49:57;;;;;;;1.10;1.10;;;;;;;20.46;41.46;100113.03;5052231;28;20563;-75
2022/09/19 07:52:24;;;;;;;0.90;0.90;;;;;;;20.50;41.12;100123.47;5051983;28;20737;-75
2022/09/19 07:54:51;;;;;;;0.95;0.95;;;;;;;20.46;39.78;100113.03;5051811;28;20611;-75
2022/09/19 07:57:18;;;;;;;9.60;1.98;;;;;;;20.58;40.78;100123.28;5051764;28;20207;-74
2022/09/19 07:59:47;;;;;;;0.90;0.90;;;;;;;20.62;39.55;100115.22;5051831;28;20257;-74
2022/09/19 08:02:13;;;;;;;1.58;1.15;;;;;;;20.66;39.51;100116.88;5051760;28;20196;-74
2022/09/19 08:04:40;;;;;;;3.58;1.00;;;;;;;20.74;39.62;100109.66;5051027;28;20199;-77
2022/09/19 08:07:08;;;;;;;1.10;1.00;;;;;;;20.91;40.16;100121.53;5051668;28;20207;-83
2022/09/19 08:09:35;;;;;;;0.98;0.98;;;;;;;20.65;41.09;100111.69;5052368;28;20204;-84
2022/09/19 08:12:03;;;;;;;2.33;0.88;;;;;;;20.83;41.25;100108.56;5051741;28;20215;-82
2022/09/19 08:14:30;;;;;;;0.80;0.80;;;;;;;21.02;38.70;100114.19;5051273;28;20679;-79
2022/09/19 08:16:57;;;;;;;0.82;0.80;;;;;;;21.00;38.72;100106.34;5051613;28;20223;-83
2022/09/19 08:19:23;;;;;;;0.80;0.80;;;;;;;20.98;38.42;100091.44;5051623;28;20268;-75
2022/09/19 08:21:51;;;;;;;0.85;0.85;;;;;;;21.22;36.01;100102.22;5050461;28;20286;-75
2022/09/19 08:24:19;;;;;;;2.72;0.98;;;;;;;21.16;37.31;100089.22;5051709;28;20203;-75
2022/09/19 08:26:46;;;;;;;1.13;1.00;;;;;;;20.98;36.41;100096.72;5051792;28;20218;-75
2022/09/19 08:29:13;;;;;;;7.32;1.00;;;;;;;20.90;37.03;100090.81;5051571;28;20265;-75
2022/09/19 08:31:40;;;;;;;0.85;0.85;;;;;;;20.98;36.46;100087.03;5051712;28;20226;-75
2022/09/19 08:34:08;;;;;;;1.00;1.00;;;;;;;21.13;37.24;100086.66;5051858;28;20301;-74
2022/09/19 08:36:36;;;;;;;1.13;0.90;;;;;;;21.25;37.18;100082.81;5051095;28;20207;-74
2022/09/19 08:39:04;;;;;;;4.13;1.10;;;;;;;21.39;36.53;100087.69;5047883;28;20202;-74
2022/09/19 08:41:47;;;;;;;3.03;1.80;;;;;;;21.54;36.75;100060.88;5051235;28;20200;-74
2022/09/19 08:44:22;;;;;;;1.13;1.10;;;;;;;21.49;36.78;100083.88;5050281;28;20207;-73
2022/09/19 08:46:57;;;;;;;0.80;0.80;;;;;;;21.40;36.42;100078.88;5034597;28;20299;-75
2022/09/19 08:49:29;;;;;;;0.90;0.90;;;;;;;21.54;36.78;100081.97;5051333;28;20226;-74
2022/09/19 08:52:01;;;;;;;3.10;1.05;;;;;;;21.45;36.86;100062.00;5050997;28;20206;-74
2022/09/19 08:54:32;;;;;;;3.25;1.00;;;;;;;21.51;36.02;100071.53;5050692;28;20203;-74
2022/09/19 08:57:00;;;;;;;6.63;1.10;;;;;;;21.52;34.98;100053.00;5049990;28;20253;-74
2022/09/19 08:59:33;;;;;;;0.90;0.90;;;;;;;21.72;35.40;100055.88;5050761;28;20786;-74
2022/09/19 09:02:22;;;;;;;1.15;0.90;;;;;;;21.67;35.07;100018.22;5050347;28;20294;-74
2022/09/19 09:04:49;;;;;;;5.18;1.00;;;;;;;21.79;36.63;100030.19;5049022;28;20276;-73
2022/09/19 09:07:26;;;;;;;1.10;1.00;;;;;;;22.15;36.07;100054.56;5050274;28;20836;-75
2022/09/19 09:10:05;;;;;;;0.75;0.70;;;;;;;22.09;33.92;100049.47;5050333;28;20203;-74
2022/09/19 09:12:42;;;;;;;2.78;1.00;;;;;;;22.04;33.80;100033.81;5037666;28;20223;-73
2022/09/19 09:15:20;;;;;;;0.90;0.85;;;;;;;22.16;34.00;100041.31;5049935;28;20222;-74
2022/09/19 09:18:02;;;;;;;0.98;0.90;;;;;;;22.18;33.99;100018.38;5048703;28;20227;-72
2022/09/19 09:20:41;;;;;;;1.00;1.00;;;;;;;22.22;34.41;100024.41;5040329;28;20215;-72
2022/09/19 09:23:14;;;;;;;1.05;1.00;;;;;;;22.26;32.96;100033.94;5049785;28;20235;-72
2022/09/19 09:25:45;;;;;;;0.80;0.80;;;;;;;22.27;36.58;100009.25;5031751;28;20208;-72
2022/09/19 09:28:18;;;;;;;0.80;0.80;;;;;;;22.60;35.30;100033.66;5050217;28;20203;-73
2022/09/19 09:30:49;;;;;;;0.88;0.80;;;;;;;22.29;34.75;100025.06;5050441;28;20206;-73
2022/09/19 09:33:21;;;;;;;1.00;1.00;;;;;;;22.23;34.34;100026.97;5049676;28;20239;-73
2022/09/19 09:35:52;;;;;;;2.17;1.10;;;;;;;22.46;35.19;100020.94;5050370;28;20214;-73
2022/09/19 09:38:29;;;;;;;0.95;0.95;;;;;;;22.56;34.17;100024.09;5050019;28;20694;-72
2022/09/19 09:43:59;;;;;;;0.90;0.90;;;;;;;22.73;34.21;100019.13;5049833;28;20218;-72
2022/09/19 09:46:36;;;;;;;2.60;0.95;;;;;;;22.70;33.21;100003.38;5049121;28;20226;-72
2022/09/19 09:49:02;;;;;;;67.90;38.40;;;;;;;22.71;33.42;100021.84;5036441;28;20207;-72
2022/09/19 09:51:39;;;;;;;5.13;3.95;;;;;;;22.78;33.38;100017.19;5015083;28;20253;-74
2022/09/19 09:57:06;;;;;;;0.90;0.90;;;;;;;22.45;33.56;100005.09;5000474;28;20209;-75
2022/09/19 10:05:33;;;;;;;1.00;0.90;;;;;;;22.23;32.76;99979.44;5005677;28;20283;-75
2022/09/19 10:08:14;;;;;;;1.10;1.10;;;;;;;22.41;33.29;99992.91;5007734;28;20578;-74
2022/09/19 10:10:43;;;;;;;1.27;0.85;;;;;;;22.50;32.51;99993.47;5007882;28;20764;-76
2022/09/19 10:13:25;;;;;;;0.80;0.80;;;;;;;22.51;31.82;99989.06;4990645;28;20731;-74
2022/09/19 10:15:56;;;;;;;0.95;0.95;;;;;;;22.63;31.57;100000.06;5003479;28;20312;-74
2022/09/19 10:18:26;;;;;;;0.82;0.82;;;;;;;22.43;31.39;99965.56;5007021;28;20213;-74
2022/09/19 10:20:54;;;;;;;11.88;1.30;;;;;;;22.48;31.96;99963.59;5007433;28;20587;-72
2022/09/19 10:23:24;;;;;;;1.73;0.80;;;;;;;22.60;31.23;99989.59;4996500;28;20198;-72
2022/09/19 10:25:52;;;;;;;9.77;1.42;;;;;;;22.83;31.74;100004.63;5001583;28;20219;-73
2022/09/19 10:28:27;;;;;;;6.57;1.08;;;;;;;22.71;32.14;99986.59;5006188;28;20274;-73
2022/09/19 10:30:58;;;;;;;3.15;0.80;;;;;;;22.85;31.86;99984.31;5008322;28;20204;-78
2022/09/19 10:33:39;;;;;;;1.85;0.90;;;;;;;23.11;34.17;99997.44;5008519;28;20300;-76
2022/09/19 10:36:08;;;;;;;3.22;0.93;;;;;;;23.12;32.31;99993.00;5047244;28;20688;-71
2022/09/19 10:38:54;;;;;;;1.85;0.80;;;;;;;23.03;31.85;99974.84;5034580;28;20570;-71
2022/09/19 10:41:22;;;;;;;0.90;0.90;;;;;;;22.95;31.18;99991.00;5051435;28;20660;-72
2022/09/19 10:43:51;;;;;;;1.80;0.95;;;;;;;22.74;31.79;99986.47;5041094;28;20596;-72
2022/09/19 10:46:22;;;;;;;0.75;0.70;;;;;;;22.54;32.29;99958.09;5070935;28;20234;-72
2022/09/19 10:48:54;;;;;;;0.98;0.90;;;;;;;22.76;32.02;99986.44;5068501;28;20207;-72
2022/09/19 10:51:21;;;;;;;0.75;0.75;;;;;;;22.58;31.75;99975.56;5065548;28;20282;-74
2022/09/19 10:53:55;;;;;;;3.40;1.15;;;;;;;22.85;31.79;99979.03;5073088;28;20602;-72
2022/09/19 10:56:25;;;;;;;0.90;0.90;;;;;;;22.97;31.55;99975.06;5072508;28;20602;-75
2022/09/19 10:59:03;;;;;;;1.38;1.10;;;;;;;22.96;30.95;99974.22;5073018;28;20683;-73
2022/09/19 11:01:32;;;;;;;2.03;1.00;;;;;;;22.74;31.63;99944.19;5053365;28;20205;-74
2022/09/19 11:04:01;;;;;;;1.33;1.23;;;;;;;22.73;31.33;99948.59;5052960;28;20277;-73
2022/09/19 11:06:28;;;;;;;6.18;1.00;;;;;;;22.51;31.74;99923.84;5017603;28;20599;-74
2022/09/19 11:08:56;;;;;;;0.98;0.98;;;;;;;22.64;31.84;99942.75;5052195;28;20623;-73
2022/09/19 11:11:37;;;;;;;0.80;0.80;;;;;;;22.78;31.92;99939.66;5051097;28;20208;-74
2022/09/19 11:14:12;;;;;;;2.13;1.13;;;;;;;22.96;32.60;99934.53;5052492;28;20238;-74
2022/09/19 11:16:49;;;;;;;0.93;0.93;;;;;;;22.81;31.18;99939.53;5051797;28;20199;-75
2022/09/19 11:19:26;;;;;;;0.82;0.82;;;;;;;22.97;31.47;99935.41;5052429;28;20202;-75
2022/09/19 11:22:00;;;;;;;0.80;0.80;;;;;;;22.83;31.78;99940.34;5051496;28;20199;-74
2022/09/19 11:24:42;;;;;;;1.95;0.90;;;;;;;22.97;31.36;99930.13;5033461;28;20203;-74
2022/09/19 11:27:38;;;;;;;1.00;1.00;;;;;;;23.07;30.91;99926.19;5052083;28;20273;-74
2022/09/19 11:30:13;;;;;;;2.30;1.10;;;;;;;23.08;31.02;99923.47;5049140;28;20211;-74
2022/09/19 11:33:05;;;;;;;0.82;0.82;;;;;;;23.16;31.88;99916.09;5034527;28;20571;-74
2022/09/19 11:35:37;;;;;;;0.80;0.80;;;;;;;23.23;31.26;99914.09;5049483;28;20196;-73
2022/09/19 11:38:21;;;;;;;0.98;0.98;;;;;;;23.32;31.43;99912.88;5050941;28;20281;-73
2022/09/19 11:41:01;;;;;;;1.15;1.00;;;;;;;23.31;30.86;99908.50;5051417;28;20207;-73
2022/09/19 11:43:45;;;;;;;1.10;0.93;;;;;;;23.12;30.18;99903.06;5051132;28;20203;-75
2022/09/19 11:46:24;;;;;;;0.90;0.90;;;;;;;22.98;30.37;99890.38;5051486;28;20263;-74
2022/09/19 11:49:14;;;;;;;1.85;0.95;;;;;;;23.23;30.68;99896.44;5051938;28;20199;-74
2022/09/19 11:51:50;;;;;;;0.90;0.90;;;;;;;23.28;29.66;99888.31;5035423;28;20215;-72
2022/09/19 11:54:44;;;;;;;1.15;1.13;;;;;;;23.20;29.95;99869.22;5032832;28;20222;-73
2022/09/19 11:57:25;;;;;;;0.90;0.90;;;;;;;23.29;29.53;99891.81;5016158;28;20219;-74
2022/09/19 12:00:12;;;;;;;0.90;0.90;;;;;;;23.44;30.18;99901.81;5051949;28;20664;-73
2022/09/19 12:02:58;;;;;;;1.40;0.93;;;;;;;23.49;30.28;99889.25;5051207;28;20235;-74